Strona główna
METAR-TAF:

METAR-TAF

Lotnisko :

Port lotniczy Nakhon Phanom

Nakhon Phanom, Tajlandia

Szerokość geograficzna: 17-23-02N, Długość geograficzna: 104-38-35E, wysokość: 179 m

Aktualna obserwacja pogody

Raport powstał 2 godziny i 37 minut temu, godzina 13:00 UTC
Wiatr 2 kt z kierunków zmiennych
Temperatura 31°C
Wilgotność 79%
Ciśnienie 1006 hPa
Widzialność: 8000 m
Mało chmury na wysokości 3000 ft

METAR: VTUW 171300Z VRB02KT 8000 FEW030 31/27 Q1006 NOSIG

czas: 22:37 (15:37 UTC)

Prognoza

Raport powstał 4 godziny i 37 minut temu, godzina 11:00 UTC
Prognoza ważna od 17 godzina 12 UTC do 18 godzina 12 UTC
Wiatr 5 kt od południe
Widzialność: 9000 m
Mało chmury na wysokości 3000 ft
Przejściowo
od 18 godzina 07 UTC do 18 godzina 12 UTC
Wiatr 15 kt z kierunków zmiennych
Widzialność: 4000 m
Mało chmury na wysokości 1800 ft, Cumulonimbus.
Przerywane chmury na wysokości 2000 ft
Przerywane chmury na wysokości 8000 ft
burza, deszcz

TAF: VTUW 171100Z 1712/1812 18005KT 9000 FEW030 TEMPO 1807/1812 VRB15KT 4000 TSRA FEW018CB BKN020 BKN080

Obserwacja i prognoza pogody dla ponad 4000 lotnisk (raport METAR i TAF).

Dostępne stacje oznaczono żółtymi i czerwonymi punktami na mapie.

Najedź kursorem aby zobaczyć nazwę stacji.

Kliknij aby zobaczyć obserwacje i prognozy pogody.

Aby zmienić mapę: kliknij na zielony przycisk z czarnym krzyżykiem, aby powiększyć; na zielony przycisk z myślnikiem, aby pomniejszyć; na zielone strzałki, aby przejść do map sąsiednich.


METAR-TAF: